• Join FlightAware (Why Join?)
  • Login
  • US Flag 
08:43AM EST


 

Airport Tracker/Info


-or-


 

Live Flight TrackerFlight Track Log ✈ USC105 ✈ 03-May-2013 ✈ KYIP - KLCK

Flight Track Log - Related Links

Times and Time Zones

All times are in EDT time to prevent confusion due to time zone crossing. See the USC105 flight status page for this flight to view local times or setup timezone preferences in your user account.

Time Position Orientation Groundspeed Altitude Reporting Facility
EDT Latitude Longitude Course Direction KTS MPH feet Rate Location/Type
07:10AM 42.2150 -83.5719 233° Southwest 113 130 1,900  Level Cleveland Center
07:11AM 42.1892 -83.5958 214° Southwest 111 128 2,900 960 Climbing Cleveland Center
07:12AM 42.1600 -83.6028 190° South 114 131 3,900 1,020 Climbing Cleveland Center
07:13AM 42.1283 -83.6153 196° South 116 133 5,000 1,020 Climbing Cleveland Center
07:14AM 42.0947 -83.6250 192° South 116 133 6,000 960 Climbing Cleveland Center
07:15AM 42.0633 -83.6347 193° South 120 138 7,000 480 Climbing Cleveland Center
07:16AM 42.0214 -83.6356 181° South 161 185 7,000  Level Cleveland Center
07:17AM 41.9850 -83.6003 144° Southeast 159 183 7,000  Level Cleveland Center
07:19AM 41.9395 -83.5857 160° South  Level Estimated
07:25AM 41.6633 -83.4017 165° South 168 193 7,000  Level Indianapolis Center
07:26AM 41.6359 -83.4890 180° South  Level Estimated
07:26AM 41.6181 -83.3903 169° South 167 192 7,000  Level Indianapolis Center
07:27AM 41.6040 -83.4473 136° Southeast  Level FlightAware Approximate
07:27AM 41.5725 -83.3792 170° South 165 190 7,000  Level Indianapolis Center
07:28AM 41.5721 -83.4057 136° Southeast  Level FlightAware Approximate
07:28AM 41.5264 -83.3669 169° South 167 192 7,000  Level Indianapolis Center
07:29AM 41.5402 -83.3641 136° Southeast  Level FlightAware Approximate
07:29AM 41.4811 -83.3539 168° South 167 192 7,000  Level Indianapolis Center
07:30AM 41.4981 -83.3494 165° South  Level FlightAware Approximate
07:30AM 41.4350 -83.3411 168° South 167 192 7,000  Level Indianapolis Center
07:31AM 41.3881 -83.3297 170° South 170 196 7,000  Level Indianapolis Center
07:32AM 41.3417 -83.3175 169° South 168 193 7,000  Level Indianapolis Center
07:33AM 41.2964 -83.3056 169° South 165 190 7,000  Level Indianapolis Center
07:34AM 41.2506 -83.2942 169° South 166 191 7,000  Level Indianapolis Center
07:35AM 41.2050 -83.2819 169° South 166 191 7,000  Level Indianapolis Center
07:36AM 41.1589 -83.2700 169° South 167 192 7,000  Level Indianapolis Center
07:37AM 41.1125 -83.2581 169° South 169 194 7,000  Level Indianapolis Center
07:38AM 41.0669 -83.2469 170° South 166 191 7,000 -60 Level Indianapolis Center
07:39AM 41.0131 -83.2336 169° South 167 192 6,900  Descending Indianapolis Center
07:40AM 40.9678 -83.2217 169° South 166 191 7,000  Climbing Indianapolis Center
07:41AM 40.9228 -83.2089 168° South 164 189 7,000  Level Indianapolis Center
07:42AM 40.8764 -83.1969 169° South 166 191 7,000  Level Indianapolis Center
07:44AM 40.8297 -83.1858 170° South 169 194 7,000  Level Indianapolis Center
07:45AM 40.7844 -83.1744 169° South 166 191 7,000  Level Indianapolis Center
07:46AM 40.7392 -83.1606 167° South 167 192 7,000  Level Indianapolis Center
07:47AM 40.6933 -83.1517 172° South 165 190 7,000  Level Indianapolis Center
07:48AM 40.6486 -83.1383 167° South 163 188 7,000  Level Indianapolis Center
07:49AM 40.6036 -83.1267 169° South 163 188 7,000  Level Indianapolis Center
07:50AM 40.5589 -83.1150 169° South 163 188 7,000  Level Indianapolis Center
07:51AM 40.5144 -83.1061 171° South 162 186 7,000  Level Indianapolis Center
07:52AM 40.4683 -83.0956 170° South 165 190 7,000  Level Indianapolis Center
07:52AM 40.4383 -83.0889 170° South 162 186 7,000  Level Indianapolis Center
07:53AM 40.4244 -83.0831 162° South 162 186 7,000  Level Indianapolis Center
07:54AM 40.3717 -83.0692 169° South 163 188 7,000  Level Indianapolis Center
07:54AM 40.3519 -83.0678 177° South 162 186 7,000 -240 Level Indianapolis Center
07:55AM 40.3275 -83.0589 165° South 160 184 6,800 -600 Descending Indianapolis Center
07:55AM 40.3067 -83.0544 171° South 170 196 6,400 -840 Descending Indianapolis Center
07:56AM 40.2769 -83.0461 168° South 176 203 6,000 -660 Descending Indianapolis Center
07:56AM 40.2592 -83.0433 173° South 183 211 5,800 -720 Descending Indianapolis Center
07:57AM 40.2264 -83.0344 168° South 182 209 5,300 -840 Descending Indianapolis Center
07:57AM 40.2097 -83.0322 174° South 181 208 5,000 -1,020 Descending Indianapolis Center
07:58AM 40.1739 -83.0211 167° South 187 215 4,300 -1,020 Descending Indianapolis Center
07:58AM 40.1583 -83.0208 179° South 190 219 4,000 -300 Descending Indianapolis Center
07:59AM 40.1236 -83.0114 168° South 186 214 4,000 -120 Level Indianapolis Center
07:59AM 40.1047 -83.0092 175° South 160 184 3,900  Descending Indianapolis Center
08:00AM 40.0800 -82.9994 163° South 172 198 4,000  Climbing Indianapolis Center
08:00AM 40.0575 -82.9956 172° South 153 176 3,900  Descending Indianapolis Center
08:01AM 40.0378 -82.9881 164° South 161 185 4,000 120 Climbing Indianapolis Center
08:01AM 40.0206 -82.9831 167° South 154 177 4,000 -300 Level Indianapolis Center
08:02AM 39.9950 -82.9761 168° South 156 180 3,700 -720 Descending Indianapolis Center
08:02AM 39.9775 -82.9725 171° South 169 194 3,300 -900 Descending Indianapolis Center
08:03AM 39.9483 -82.9594 161° South 163 188 2,800 -720 Descending Indianapolis Center
08:03AM 39.9331 -82.9486 151° Southeast 181 208 2,600 -540 Descending Indianapolis Center
08:04AM 39.9058 -82.9319 155° Southeast 168 193 2,300 -480 Descending Indianapolis Center
08:05AM 39.8678 -82.9028 150° Southeast 163 188 1,800 -540 Descending Indianapolis Center
08:06AM 39.8358 -82.8947 169° South 155 178 1,300 -420 Descending Indianapolis Center
08:07AM 39.8169 -82.9306 236° Southwest 137 158 1,000 -300 Descending Indianapolis Center
08:09AM 39.8138 -82.9278 159° South  Level Estimated